createdAt,value
2023-02-03T00:01:13.273Z,82.10
2023-02-03T00:11:15.499Z,81.26
2023-02-03T00:21:17.890Z,80.42
2023-02-03T00:31:22.968Z,79.89
2023-02-03T00:41:29.807Z,78.79
2023-02-03T00:51:32.833Z,77.60
2023-02-03T01:01:35.650Z,76.30
2023-02-03T01:11:38.339Z,76.60
2023-02-03T01:21:40.567Z,76.59
2023-02-03T01:31:42.914Z,76.07
2023-02-03T01:41:45.283Z,75.22
2023-02-03T01:51:47.703Z,75.72
2023-02-03T02:01:51.693Z,76.11
2023-02-03T02:11:54.013Z,76.16
2023-02-03T02:22:18.022Z,76.83
2023-02-03T02:32:20.196Z,75.78
2023-02-03T02:42:28.264Z,74.45
2023-02-03T02:52:33.162Z,74.49
2023-02-03T03:02:36.593Z,74.35
2023-02-03T03:12:45.707Z,73.92
2023-02-03T03:22:57.611Z,74.08
2023-02-03T06:05:10.161Z,94.77
2023-02-03T06:15:12.482Z,91.43
2023-02-03T06:25:14.909Z,89.55
2023-02-03T06:35:17.983Z,87.79
2023-02-03T06:45:20.216Z,86.77
2023-02-03T06:55:22.515Z,86.00
2023-02-03T07:05:25.543Z,84.73
2023-02-03T07:15:27.803Z,83.78
2023-02-03T07:25:31.070Z,82.47
2023-02-03T07:35:33.711Z,81.67
2023-02-03T07:45:36.232Z,80.72
2023-02-03T07:55:40.214Z,80.13
2023-02-03T08:05:42.506Z,79.61
2023-02-03T08:15:44.896Z,80.48
2023-02-03T08:25:54.046Z,80.14
2023-02-03T08:35:57.102Z,80.97
2023-02-03T08:46:03.574Z,82.02
2023-02-03T08:56:07.533Z,80.70
2023-02-03T09:06:13.280Z,80.97
2023-02-03T09:16:18.844Z,81.45
2023-02-03T09:26:21.156Z,81.38
2023-02-03T09:36:23.348Z,83.58
2023-02-03T09:46:33.493Z,84.72
2023-02-03T09:56:37.139Z,85.28
2023-02-03T10:06:45.060Z,84.52
2023-02-03T10:17:02.550Z,85.27
2023-02-03T10:27:05.006Z,84.61
2023-02-03T10:37:24.512Z,85.29
2023-02-03T10:47:35.025Z,86.76
2023-02-03T10:57:39.460Z,86.76
2023-02-03T11:07:41.871Z,85.87
2023-02-03T11:17:44.820Z,86.98
2023-02-03T11:27:47.486Z,87.44
2023-02-03T11:37:55.302Z,86.60
2023-02-03T11:48:02.622Z,84.86
2023-02-03T11:58:23.592Z,85.52
2023-02-03T12:08:25.846Z,85.72
2023-02-03T12:18:47.280Z,85.39
2023-02-03T12:29:08.630Z,84.02
2023-02-03T12:39:33.891Z,84.37
2023-02-03T12:49:39.649Z,84.78
2023-02-03T12:59:43.755Z,85.38
2023-02-03T13:10:21.624Z,85.26
2023-02-03T13:20:27.575Z,84.79
2023-02-03T13:30:54.909Z,84.51
2023-02-03T13:41:06.525Z,87.21
2023-02-03T13:51:14.172Z,86.95
2023-02-03T14:01:37.284Z,87.64
2023-02-03T14:11:41.243Z,86.00
2023-02-03T14:22:08.121Z,85.63
2023-02-03T14:32:13.974Z,85.13
2023-02-03T14:42:16.235Z,84.01
2023-02-03T14:52:33.529Z,81.65
2023-02-03T15:02:36.738Z,81.21
2023-02-03T15:12:39.183Z,81.76
2023-02-03T15:22:41.739Z,80.57
2023-02-03T15:32:53.932Z,82.78
2023-02-03T15:43:16.558Z,83.55
2023-02-03T15:53:27.618Z,86.13
2023-02-03T16:03:55.181Z,85.13
2023-02-03T16:14:00.390Z,84.62
2023-02-03T16:24:05.567Z,83.73
2023-02-03T16:34:37.980Z,82.82
2023-02-03T16:44:58.738Z,82.58
2023-02-03T16:55:01.015Z,82.62
2023-02-03T17:05:03.329Z,81.61
2023-02-03T17:15:06.172Z,81.96
2023-02-03T17:25:08.469Z,81.74
2023-02-03T17:35:10.787Z,82.91
2023-02-03T17:55:30.529Z,81.98
2023-02-03T18:05:33.554Z,82.06
2023-02-03T18:15:37.996Z,82.45
2023-02-03T18:25:40.383Z,82.24
2023-02-03T18:35:42.834Z,82.27
2023-02-03T18:45:45.117Z,83.84
2023-02-03T18:55:47.418Z,83.90
2023-02-03T19:05:49.712Z,83.95
2023-02-03T19:15:52.006Z,84.17
2023-02-03T19:25:54.775Z,83.87
2023-02-03T19:35:57.830Z,84.06
2023-02-03T19:46:00.329Z,83.79
2023-02-03T19:56:02.636Z,84.93
2023-02-03T20:06:05.021Z,85.25
2023-02-03T20:16:07.276Z,84.42
2023-02-03T20:26:09.504Z,84.26
2023-02-03T20:36:12.461Z,84.63
2023-02-03T20:46:18.600Z,84.91
2023-02-03T20:56:21.978Z,84.38
2023-02-03T21:06:24.833Z,85.93
2023-02-03T21:16:36.731Z,86.05
2023-02-03T21:26:38.961Z,86.13
2023-02-03T21:40:27.388Z,85.21
2023-02-03T21:50:33.895Z,84.48
2023-02-03T22:00:48.099Z,83.59
2023-02-03T22:10:50.444Z,84.68
2023-02-03T22:20:53.069Z,83.59
2023-02-03T22:30:55.286Z,83.73
2023-02-03T22:40:57.733Z,83.39
2023-02-03T22:51:00.758Z,84.19
2023-02-03T23:01:03.124Z,84.13
2023-02-03T23:11:05.493Z,84.18
2023-02-03T23:21:07.711Z,84.85
2023-02-03T23:31:10.079Z,84.15
2023-02-03T23:41:12.282Z,83.90
2023-02-03T23:51:14.575Z,84.13
